Bridgeport, CT (06699)

2:51 PM EDT on June 03, 2015 (GMT -0400)
Brewer Stratford Marina | | Change Station
CLOSE
Current Station
Personal Weather Station
Location: Stratford, CT
Elevation: 20 ft
Nearby Weather Stations

Elev 20 ft 41.18 °N, 73.13 °W | Updated 4 seconds ago

Scattered Clouds
Scattered Clouds
60.5 °F
Feels Like 60.5 °F
N
0.0
Wind Variable Wind from SSE
Gusts 0.0 mph

Today
High -- | Low -- °F
--% Chance of Precip.
Yesterday
High -- | Low -- °F
Precip. -- in
5:21 AM 8:20 PM
Full, 99% visible
Pressure 30.22 in
Visibility 10.0 miles
Clouds Few 3000 ft
Scattered Clouds 25000 ft
Dew Point 47 °F
Humidity 62%
Rainfall 0.00 in
Snow Depth Not available.
UV 9 out of 12
Pollen 8.30 out of 12
Air Quality Not available.
Flu Activity Local Activity
METAR KHVN 031753Z 18010KT 10SM FEW030 SCT250 16/11 A3022 RMK AO2 SLP231 T01610111 10172 20111 56005

More Conditions Fewer Conditions

Pressure 30.22 in
Visibility 10.0 miles
Clouds Few 3000 ft
Scattered Clouds 25000 ft
Dew Point 47 °F
Humidity 62%
Rainfall 0.00 in
Snow Depth Not available.
UV 9 out of 12
Pollen 8.30 out of 12
Air Quality Not available.
Flu Activity Local Activity
METAR KHVN 031753Z 18010KT 10SM FEW030 SCT250 16/11 A3022 RMK AO2 SLP231 T01610111 10172 20111 56005

More Conditions Fewer Conditions

10-Day Weather Forecast

×

Almanac

Astronomy

Jun. 03, 2015 Rise Set
Actual Time
Civil Twilight
Nautical Twilight
Astronomical Twilight
Moon
Length of Visible Light
Length of Day
Tomorrow will be .
, % of the Moon is Illuminated

Today's Extremes

State Highs State Lows

Community

WunderPhotos

Upload Photos

1,826,270 photos uploaded!

WunderBlogs® & News

Nearby

Air Quality

  Air Quality AQ Index Pollutant
Not available.

Snow Depth

Station Depth Elevation

Earthquake Activity

City Distance Mag. Time & Date
Minimum magnitude displayed is 2.5.

Coastal Water Temperatures

Place Temperature

Stations

Nearby Weather Stations

Station Location Temp. Windchill Dew Point Humidity Wind Precip. Elev Updated Type